M I D A S
Marine Information and Data Acquisition System
Tripno 2002 of the Zeeleeuw from 2010-12-20 08:39:17 to 2010-12-20 16:13:24
Back to CruiseResearch ActivitiesStationsMapUnderway DataData graphs

EquipmentUnitsComment
TimeDGPSUTC
LatitudeDGPSDM.mWGS84
LongitudeDGPSDM.mWGS84
HeadingGyrodeg 
SOGDGPSknotsSpeed over ground
COGDGPSdegCourse over ground
DepthEcho soundermeters200 kHz
Missing or incorrect values are displayed as -999
Navigation data collected by the RV Zeeleeuw from 2010-12-20 08:33:48 to 2010-12-20 16:21:29
Time Latitude Longitude Heading SOG COG Depth
2010-12-20 08:34:52 51°13.664 2°55.961 127 -999 290 8.1
2010-12-20 08:35:52 51°13.663 2°55.961 127.2 -999 313 8.2
2010-12-20 08:36:52 51°13.66 2°55.959 127.2 -999 39 8.2
2010-12-20 08:37:52 51°13.664 2°55.961 127.2 0.1 193 8.2
2010-12-20 08:38:52 51°13.663 2°55.961 126.6 -999 314 8.2
2010-12-20 08:39:52 51°13.663 2°55.961 121.6 0.1 199 8.2
2010-12-20 08:40:52 51°13.662 2°55.959 107.9 0.3 274 8.4
2010-12-20 08:41:55 51°13.673 2°55.92 103.3 2.4 292 -999
2010-12-20 08:42:55 51°13.681 2°55.843 94.1 3.2 276 -999
2010-12-20 08:43:55 51°13.686 2°55.763 87.3 2.6 276 13.7
2010-12-20 08:44:53 51°13.694 2°55.75 49.8 1.1 30 14.1
2010-12-20 08:45:54 51°13.696 2°55.749 14 0.6 211 14
2010-12-20 08:46:51 51°13.713 2°55.739 339.6 2.8 339 14.2
2010-12-20 08:47:52 51°13.781 2°55.677 326.4 5.9 327 11.3
2010-12-20 08:48:52 51°13.883 2°55.591 334.4 7.6 335 11.6
2010-12-20 08:49:55 51°14.009 2°55.502 335 8.1 335 -999
2010-12-20 08:50:56 51°14.134 2°55.41 334.6 8.1 335 -999
2010-12-20 08:51:55 51°14.259 2°55.316 332.5 9.3 333 11.7
2010-12-20 08:52:55 51°14.396 2°55.164 320.9 10.3 321 11.9
2010-12-20 08:53:55 51°14.537 2°54.999 324.1 10.6 327 13
2010-12-20 08:54:53 51°14.679 2°54.843 323.9 10.8 324 12.7
2010-12-20 08:55:52 51°14.822 2°54.683 325 10.6 325 -999
2010-12-20 08:56:55 51°14.972 2°54.509 324.5 10.6 324 12.2
2010-12-20 08:57:53 51°15.11 2°54.346 322.8 10.7 321 12.1
2010-12-20 08:58:51 51°15.243 2°54.174 322 10.7 321 12.7
2010-12-20 08:59:52 51°15.384 2°53.995 322.3 10.6 322 13.2
2010-12-20 09:00:52 51°15.529 2°53.826 328.2 10.9 328 13.3
2010-12-20 09:01:52 51°15.691 2°53.691 331.8 11 332 12.8
2010-12-20 09:02:52 51°15.855 2°53.559 333.2 11 334 12.9
2010-12-20 09:03:52 51°16.022 2°53.438 335.8 11 336 13.1
2010-12-20 09:04:52 51°16.186 2°53.318 335.7 10.9 335 13
2010-12-20 09:05:52 51°16.353 2°53.201 336.1 11 336 13.4
2010-12-20 09:06:52 51°16.52 2°53.084 335.6 10.9 337 13.4
2010-12-20 09:07:52 51°16.685 2°52.965 335.6 10.9 336 12.9
2010-12-20 09:08:52 51°16.851 2°52.846 335.4 10.8 335 10.9
2010-12-20 09:09:52 51°17.014 2°52.726 335.2 10.8 335 11.5
2010-12-20 09:10:52 51°17.178 2°52.606 335.8 10.8 336 11.7
2010-12-20 09:11:52 51°17.343 2°52.486 334.7 10.9 334 11.8
2010-12-20 09:12:52 51°17.507 2°52.363 335.5 10.9 335 12.3
2010-12-20 09:13:52 51°17.672 2°52.242 335.2 10.9 335 12.7
2010-12-20 09:14:52 51°17.835 2°52.121 335.4 10.8 335 13.1
2010-12-20 09:15:52 51°18.001 2°52.001 334.7 11.3 335 12.3
2010-12-20 09:16:52 51°18.175 2°51.871 335.7 11.6 336 13.1
2010-12-20 09:17:52 51°18.352 2°51.742 335.5 11.8 335 13.7
2010-12-20 09:18:52 51°18.529 2°51.609 335.4 11.7 335 15.1
2010-12-20 09:19:52 51°18.707 2°51.476 335.6 11.8 335 16
2010-12-20 09:20:52 51°18.884 2°51.343 335.7 11.8 335 16.4
2010-12-20 09:21:52 51°19.064 2°51.22 337.6 11.7 337 17
2010-12-20 09:22:52 51°19.246 2°51.099 337.8 11.9 338 17.2
2010-12-20 09:23:52 51°19.427 2°50.978 337.6 11.8 337 16.4
2010-12-20 09:24:52 51°19.611 2°50.857 337 11.9 337 14.6
2010-12-20 09:25:52 51°19.792 2°50.741 337.2 11.7 338 14.2
2010-12-20 09:26:52 51°19.972 2°50.624 337.2 11.7 337 15.9
2010-12-20 09:27:52 51°20.152 2°50.506 337.3 11.8 338 17.8
2010-12-20 09:28:52 51°20.332 2°50.385 336.9 11.8 338 19.3
2010-12-20 09:29:52 51°20.514 2°50.263 337.6 11.9 337 22.1
2010-12-20 09:30:52 51°20.667 2°50.161 337.3 8.9 337 24.2
2010-12-20 09:31:52 51°20.799 2°50.075 337 8.5 338 25.1
2010-12-20 09:32:52 51°20.928 2°49.989 337.1 8.4 338 25.9
2010-12-20 09:33:52 51°21.058 2°49.905 337 8.4 338 25.7
2010-12-20 09:34:52 51°21.189 2°49.822 337.8 8.4 339 25.2
2010-12-20 09:35:52 51°21.32 2°49.74 337.4 8.5 338 24.8
2010-12-20 09:36:52 51°21.455 2°49.657 337.3 9.4 339 24.4
2010-12-20 09:37:52 51°21.614 2°49.559 337.2 11.3 340 24.5
2010-12-20 09:38:52 51°21.805 2°49.441 337.6 12.6 339 25.6
2010-12-20 09:39:52 51°22 2°49.324 337.9 12.3 341 26.1
2010-12-20 09:40:52 51°22.191 2°49.211 336.9 12.2 340 25.7
2010-12-20 09:41:52 51°22.381 2°49.093 337.4 12.1 338 25.2
2010-12-20 09:42:52 51°22.569 2°48.978 336.9 11.9 338 21.6
2010-12-20 09:43:52 51°22.754 2°48.861 336.4 12 337 18.1
2010-12-20 09:44:52 51°22.942 2°48.744 337.7 12.1 342 19.3
2010-12-20 09:45:52 51°23.13 2°48.625 334.9 12.2 339 22.9
2010-12-20 09:46:52 51°23.32 2°48.501 337 12.4 339 24.4
2010-12-20 09:47:52 51°23.512 2°48.382 338.2 12.4 338 24.7
2010-12-20 09:48:52 51°23.706 2°48.267 337.9 12.5 340 24.2
2010-12-20 09:49:52 51°23.902 2°48.15 338.3 12.5 340 22.8
2010-12-20 09:50:52 51°24.095 2°48.036 336.9 12.4 339 25.7
2010-12-20 09:51:52 51°24.288 2°47.92 337.8 12.5 339 24.7
2010-12-20 09:52:52 51°24.484 2°47.802 337 12.7 339 29.2
2010-12-20 09:53:52 51°24.681 2°47.682 336.9 12.7 339 32.2
2010-12-20 09:54:52 51°24.879 2°47.559 335.6 12.7 337 33.7
2010-12-20 09:55:52 51°25.067 2°47.403 328.8 12.6 331 30.3
2010-12-20 09:56:52 51°25.25 2°47.245 328.4 12.2 333 27.4
2010-12-20 09:57:52 51°25.429 2°47.091 328.2 12.2 332 28.1
2010-12-20 09:58:52 51°25.609 2°46.936 329.5 12.4 331 26.2
2010-12-20 09:59:52 51°25.788 2°46.783 329.4 12.2 332 25.5
2010-12-20 10:00:52 51°25.968 2°46.628 329.4 12.3 332 26.2
2010-12-20 10:01:52 51°26.149 2°46.476 329.7 12.3 332 27
2010-12-20 10:02:52 51°26.329 2°46.322 329.3 12.3 332 28
2010-12-20 10:03:52 51°26.509 2°46.165 329 12.2 332 30.5
2010-12-20 10:04:52 51°26.69 2°46.01 329.4 12.4 331 30.8
2010-12-20 10:05:52 51°26.873 2°45.85 329.3 12.6 331 34.2
2010-12-20 10:06:52 51°27.058 2°45.691 329.3 12.7 332 32
2010-12-20 10:07:52 51°27.243 2°45.534 329.3 12.7 333 30.9
2010-12-20 10:08:52 51°27.429 2°45.377 330.3 12.7 333 31.1
2010-12-20 10:09:52 51°27.617 2°45.224 329.6 12.6 333 30.6
2010-12-20 10:10:52 51°27.804 2°45.072 329.1 12.5 332 30
2010-12-20 10:11:52 51°27.989 2°44.922 329.1 12.5 333 30
2010-12-20 10:12:52 51°28.177 2°44.775 330.2 12.6 336 31.8
2010-12-20 10:13:52 51°28.363 2°44.627 329 12.4 333 32.5
2010-12-20 10:14:52 51°28.55 2°44.478 329.2 12.5 333 31.4
2010-12-20 10:15:52 51°28.738 2°44.329 329.5 12.6 334 31.7
2010-12-20 10:16:52 51°28.926 2°44.177 329.6 12.6 333 31.6
2010-12-20 10:17:52 51°29.112 2°44.025 329.1 12.4 330 34.2
2010-12-20 10:18:52 51°29.299 2°43.872 329.3 12.6 333 30.7
2010-12-20 10:19:52 51°29.486 2°43.719 329.3 12.5 333 33.4
2010-12-20 10:20:52 51°29.673 2°43.57 328.8 12.5 333 33.9
2010-12-20 10:21:52 51°29.861 2°43.421 328.8 12.6 334 34.4
2010-12-20 10:22:52 51°30.057 2°43.338 4.5 12.9 13 32
2010-12-20 10:23:52 51°30.262 2°43.47 19.3 13.4 21 35
2010-12-20 10:24:52 51°30.468 2°43.604 18.9 13.3 22 31.7
2010-12-20 10:25:52 51°30.674 2°43.74 19.9 13.3 23 35.3
2010-12-20 10:26:52 51°30.88 2°43.876 20.1 13.4 22 37.6
2010-12-20 10:27:52 51°31.086 2°44.014 20.4 13.4 23 36.2
2010-12-20 10:28:52 51°31.294 2°44.151 21 13.9 25 37.7
2010-12-20 10:29:52 51°31.509 2°44.289 20 13.9 20 36.7
2010-12-20 10:30:52 51°31.726 2°44.433 21.1 14.1 23 36.7
2010-12-20 10:31:52 51°31.943 2°44.583 20.1 14.2 24 38.1
2010-12-20 10:32:52 51°32.163 2°44.711 14.6 14 17 35.9
2010-12-20 10:33:52 51°32.384 2°44.828 15.3 14.1 21 38.8
2010-12-20 10:34:52 51°32.608 2°44.947 16.1 14.1 20 35
2010-12-20 10:35:52 51°32.83 2°45.066 14.9 14 19 34.3
2010-12-20 10:36:52 51°33.054 2°45.184 14.4 14.2 18 33.6
2010-12-20 10:37:52 51°33.276 2°45.3 14.4 14.1 17 33.2
2010-12-20 10:38:52 51°33.497 2°45.425 16.1 14 20 33.3
2010-12-20 10:39:52 51°33.717 2°45.546 14.8 14.1 18 33.2
2010-12-20 10:40:52 51°33.939 2°45.657 12.2 14 15 34.1
2010-12-20 10:41:52 51°34.161 2°45.76 11.9 13.9 16 35
2010-12-20 10:42:52 51°34.383 2°45.855 8.3 13.8 11 33.7
2010-12-20 10:43:52 51°34.61 2°45.911 3.3 13.8 8 33.8
2010-12-20 10:44:52 51°34.836 2°45.964 3.8 13.7 6 32.2
2010-12-20 10:45:52 51°35.061 2°46.022 4 13.5 10 26
2010-12-20 10:46:52 51°35.285 2°46.082 4.4 13.6 9 18.4
2010-12-20 10:47:52 51°35.509 2°46.152 4.9 13.6 12 19.7
2010-12-20 10:48:52 51°35.733 2°46.218 3.7 13.5 11 20.1
2010-12-20 10:49:52 51°35.957 2°46.285 2.7 13.7 10 19.8
2010-12-20 10:50:52 51°36.171 2°46.423 21.2 14 26 21.3
2010-12-20 10:51:52 51°36.387 2°46.575 17.2 14 22 21.3
2010-12-20 10:52:52 51°36.606 2°46.71 14.6 14.2 20 20.8
2010-12-20 10:53:52 51°36.826 2°46.83 13.8 13.9 20 23.6
2010-12-20 10:54:52 51°37.047 2°46.945 12.5 14 17 23.9
2010-12-20 10:55:52 51°37.268 2°47.061 13.2 13.9 18 24.3
2010-12-20 10:56:52 51°37.488 2°47.179 13.3 14 20 23.8
2010-12-20 10:57:52 51°37.71 2°47.302 13.8 14.1 19 24.5
2010-12-20 10:58:52 51°37.931 2°47.428 15.5 13.9 20 24.6
2010-12-20 10:59:52 51°38.152 2°47.54 8.9 14.1 16 21.4
2010-12-20 11:00:52 51°38.374 2°47.662 15.4 14.1 20 21.6
2010-12-20 11:01:52 51°38.595 2°47.79 15 14.2 22 23.7
2010-12-20 11:02:52 51°38.815 2°47.915 15.9 14.2 21 25.8
2010-12-20 11:03:52 51°39.035 2°48.045 15.5 13.9 20 24.3
2010-12-20 11:04:52 51°39.254 2°48.182 16.5 14 21 23.6
2010-12-20 11:05:52 51°39.473 2°48.315 14.8 14 20 27
2010-12-20 11:06:52 51°39.693 2°48.442 13.9 14 20 25.6
2010-12-20 11:07:52 51°39.911 2°48.578 18.9 14.1 23 21.2
2010-12-20 11:08:52 51°40.132 2°48.712 17.4 14.1 23 26
2010-12-20 11:09:52 51°40.352 2°48.839 17 14.1 22 25.9
2010-12-20 11:10:52 51°40.572 2°48.965 13.1 14 18 30.2
2010-12-20 11:11:52 51°40.791 2°49.1 17.4 14.1 23 29.8
2010-12-20 11:12:52 51°41.011 2°49.233 16.1 14.2 21 24.3
2010-12-20 11:13:52 51°41.228 2°49.373 17.4 13.9 19 31.6
2010-12-20 11:14:52 51°41.448 2°49.494 13.4 13.9 15 33.6
2010-12-20 11:15:52 51°41.673 2°49.597 9.3 14.1 14 32.6
2010-12-20 11:16:52 51°41.874 2°49.528 322.5 12.7 330 26.7
2010-12-20 11:17:52 51°42.061 2°49.358 325.1 12.8 330 32.3
2010-12-20 11:18:52 51°42.229 2°49.147 309.7 12.8 317 28.7
2010-12-20 11:19:52 51°42.367 2°48.896 301.9 12.5 305 28.6
2010-12-20 11:20:52 51°42.444 2°48.6 279 11.8 285 32.1
2010-12-20 11:21:52 51°42.365 2°48.373 203.9 11 197 33.2
2010-12-20 11:22:52 51°42.175 2°48.306 195.9 11.7 190 33
2010-12-20 11:23:52 51°41.988 2°48.208 204.3 11.9 201 33.2
2010-12-20 11:24:52 51°41.807 2°48.093 201.3 11.5 200 34.1
2010-12-20 11:25:52 51°41.621 2°47.99 201.9 11.9 197 32.5
2010-12-20 11:26:52 51°41.438 2°47.874 205.6 11.8 204 31.4
2010-12-20 11:27:52 51°41.263 2°47.739 208.4 11.6 205 29.5
2010-12-20 11:28:52 51°41.091 2°47.595 209.1 11.4 207 28.2
2010-12-20 11:29:52 51°40.919 2°47.452 209.1 11.5 210 31.6
2010-12-20 11:30:52 51°40.746 2°47.313 208.6 11.1 204 34.3
2010-12-20 11:31:52 51°40.573 2°47.175 207.7 11.9 207 31.9
2010-12-20 11:32:52 51°40.392 2°47.064 201.1 11.5 198 37
2010-12-20 11:33:52 51°40.207 2°46.965 199.5 11.7 192 36.8
2010-12-20 11:34:52 51°40.027 2°46.854 206.6 11.6 206 33.4
2010-12-20 11:35:52 51°39.854 2°46.714 208.2 11.8 206 36.3
2010-12-20 11:36:52 51°39.681 2°46.569 207.8 11.9 210 37
2010-12-20 11:37:52 51°39.508 2°46.431 208 11.3 205 37.4
2010-12-20 11:38:52 51°39.335 2°46.294 206.5 11.7 205 36.6
2010-12-20 11:39:52 51°39.161 2°46.153 208.4 11.4 206 37.6
2010-12-20 11:40:52 51°38.988 2°46.018 207.4 11.9 207 38.1
2010-12-20 11:41:52 51°38.815 2°45.877 207.8 11.8 209 37.7
2010-12-20 11:42:52 51°38.642 2°45.735 208.1 11.5 207 38.7
2010-12-20 11:43:52 51°38.469 2°45.598 207 11.2 203 38.4
2010-12-20 11:44:52 51°38.288 2°45.486 201.2 11.7 197 39.1
2010-12-20 11:45:52 51°38.105 2°45.379 200.6 11.7 201 37.5
2010-12-20 11:46:52 51°37.922 2°45.276 200.6 11.9 200 37.4
2010-12-20 11:47:52 51°37.74 2°45.178 199.6 11.8 199 39.3
2010-12-20 11:48:52 51°37.557 2°45.077 200 11.5 198 39.3
2010-12-20 11:49:52 51°37.377 2°44.966 201.5 11.8 202 38.5
2010-12-20 11:50:52 51°37.197 2°44.856 201.7 11.3 201 37.9
2010-12-20 11:51:52 51°37.018 2°44.747 200.2 11.3 198 39.8
2010-12-20 11:52:52 51°36.838 2°44.641 201.1 11.4 199 38.4
2010-12-20 11:53:52 51°36.659 2°44.534 200.2 11.2 200 40.4
2010-12-20 11:54:52 51°36.482 2°44.429 202.2 11.4 201 40
2010-12-20 11:55:52 51°36.304 2°44.326 199.2 11.2 202 41.2
2010-12-20 11:56:52 51°36.125 2°44.222 200.4 11.6 198 39.9
2010-12-20 11:57:52 51°35.947 2°44.11 202.9 11.2 204 41.3
2010-12-20 11:58:52 51°35.769 2°44.002 201.1 11.9 204 41.9
2010-12-20 11:59:52 51°35.591 2°43.898 200.4 11.5 198 40.9
2010-12-20 12:00:52 51°35.415 2°43.792 201.1 11 200 40.6
2010-12-20 12:01:52 51°35.237 2°43.681 201.2 11.6 199 41.8
2010-12-20 12:02:52 51°35.061 2°43.571 200 11.3 201 41.1
2010-12-20 12:03:52 51°34.883 2°43.462 201.3 11.3 200 41.8
2010-12-20 12:04:52 51°34.706 2°43.352 202.3 11.3 202 41.1
2010-12-20 12:05:52 51°34.529 2°43.244 200.4 11.5 202 42.7
2010-12-20 12:06:52 51°34.353 2°43.134 201.1 11.1 200 40.9
2010-12-20 12:07:52 51°34.176 2°43.026 199.7 11.5 196 40.5
2010-12-20 12:08:52 51°34 2°42.912 201.7 11.5 205 38.7
2010-12-20 12:09:52 51°33.822 2°42.797 200.7 11.5 203 37.5
2010-12-20 12:10:52 51°33.646 2°42.685 201.7 11.4 201 39.1
2010-12-20 12:11:52 51°33.467 2°42.572 201.9 11.6 203 39.8
2010-12-20 12:12:52 51°33.29 2°42.457 200.9 11.3 203 36.9
2010-12-20 12:13:52 51°33.114 2°42.345 200 11.3 201 37.9
2010-12-20 12:14:52 51°32.94 2°42.229 201.9 11.4 205 36.7
2010-12-20 12:15:52 51°32.765 2°42.116 201 11.6 202 36.9
2010-12-20 12:16:52 51°32.589 2°42.004 201 11.2 201 38.4
2010-12-20 12:17:52 51°32.414 2°41.89 201.7 11.2 202 37.1
2010-12-20 12:18:52 51°32.237 2°41.775 201.4 11.7 201 38.3
2010-12-20 12:19:52 51°32.065 2°41.653 206.4 11 214 38.2
2010-12-20 12:20:52 51°32.026 2°41.366 262 11.9 270 38.9
2010-12-20 12:21:52 51°32.048 2°41.047 268.8 12.1 279 38.8
2010-12-20 12:22:52 51°32.074 2°40.727 269.2 12.2 277 40.5
2010-12-20 12:23:52 51°32.103 2°40.406 269.7 12.2 281 38.5
2010-12-20 12:24:52 51°32.13 2°40.083 270.6 12.1 279 41
2010-12-20 12:25:52 51°32.159 2°39.758 270.1 12.3 280 40.4
2010-12-20 12:26:52 51°32.185 2°39.435 269.4 12.2 274 39.5
2010-12-20 12:27:52 51°32.268 2°39.148 312.9 12.8 326 38.6
2010-12-20 12:28:52 51°32.49 2°39.177 13.6 14.4 21 38.8
2010-12-20 12:29:52 51°32.699 2°39.358 36.6 14.4 38 38.6
2010-12-20 12:30:52 51°32.873 2°39.627 45.3 14.7 46 39.4
2010-12-20 12:31:52 51°33.048 2°39.895 38.8 14.5 38 40.4
2010-12-20 12:32:52 51°33.253 2°40.095 22.9 14.5 26 41.9
2010-12-20 12:33:52 51°33.481 2°40.216 12.7 14.5 15 41.8
2010-12-20 12:34:52 51°33.712 2°40.326 13.6 14.5 16 41.3
2010-12-20 12:35:52 51°33.941 2°40.444 15.9 14.5 19 40.1
2010-12-20 12:36:52 51°34.165 2°40.581 18.1 14.5 23 40.5
2010-12-20 12:37:52 51°34.39 2°40.719 17.2 14.4 20 41.5
2010-12-20 12:38:52 51°34.613 2°40.863 19.3 14.5 22 40.3
2010-12-20 12:39:52 51°34.836 2°41.008 18.9 14.5 22 39.3
2010-12-20 12:40:52 51°35.061 2°41.151 18.2 14.5 21 37
2010-12-20 12:41:52 51°35.284 2°41.293 17.8 14.4 22 40.3
2010-12-20 12:42:52 51°35.506 2°41.433 17.5 14.4 23 40.8
2010-12-20 12:43:52 51°35.731 2°41.574 18.3 14.5 20 39.1
2010-12-20 12:44:52 51°35.954 2°41.717 18.6 14.4 22 40.2
2010-12-20 12:45:52 51°36.177 2°41.857 18.3 14.4 21 39
2010-12-20 12:46:52 51°36.402 2°41.996 18.4 14.4 20 39.3
2010-12-20 12:47:52 51°36.628 2°42.137 18.4 14.7 22 39.3
2010-12-20 12:48:52 51°36.855 2°42.273 18.3 14.4 21 39.8
2010-12-20 12:49:52 51°37.081 2°42.41 18.7 14.6 21 38.7
2010-12-20 12:50:52 51°37.308 2°42.549 17.5 14.6 20 38.7
2010-12-20 12:51:52 51°37.536 2°42.686 18.1 14.7 20 39.3
2010-12-20 12:52:52 51°37.765 2°42.822 18.7 14.7 22 38.9
2010-12-20 12:53:52 51°37.993 2°42.962 18.6 14.6 22 38.8
2010-12-20 12:54:52 51°38.223 2°43.098 18.1 14.5 21 39.2
2010-12-20 12:55:52 51°38.453 2°43.234 18.1 14.9 21 38
2010-12-20 12:56:52 51°38.684 2°43.369 17.8 14.7 18 38.5
2010-12-20 12:57:52 51°38.914 2°43.506 18.9 14.9 20 38.2
2010-12-20 12:58:52 51°39.144 2°43.641 18.5 14.7 20 39.4
2010-12-20 12:59:52 51°39.374 2°43.776 18.3 14.6 20 39.6
2010-12-20 13:00:52 51°39.603 2°43.909 17.9 14.9 20 38.7
2010-12-20 13:01:52 51°39.834 2°44.04 18.8 14.6 20 39.4
2010-12-20 13:02:52 51°40.061 2°44.189 21.9 14.7 23 38.1
2010-12-20 13:03:52 51°40.287 2°44.342 20.4 14.8 21 38.8
2010-12-20 13:04:52 51°40.514 2°44.492 21.8 14.8 23 37.8
2010-12-20 13:05:52 51°40.74 2°44.641 21.8 14.7 21 40.5
2010-12-20 13:06:52 51°40.965 2°44.791 21.3 14.7 23 40
2010-12-20 13:07:52 51°41.192 2°44.938 21.3 14.7 22 39.1
2010-12-20 13:08:52 51°41.42 2°45.086 22 15 23 38.6
2010-12-20 13:09:52 51°41.646 2°45.235 21.1 14.7 23 42.2
2010-12-20 13:10:52 51°41.874 2°45.383 21.9 14.8 23 38
2010-12-20 13:11:52 51°42.102 2°45.531 21.1 14.7 22 40.5
2010-12-20 13:12:52 51°42.33 2°45.679 20.8 14.7 22 43.5
2010-12-20 13:13:52 51°42.559 2°45.814 13.8 14.5 11 35.4
2010-12-20 13:14:52 51°42.784 2°45.756 328 13.4 330 35.5
2010-12-20 13:15:52 51°42.94 2°45.511 302.7 13.3 311 38.1
2010-12-20 13:16:52 51°43.075 2°45.232 300.7 13.2 308 39.3
2010-12-20 13:17:52 51°43.211 2°44.955 301 13.1 305 39.8
2010-12-20 13:18:52 51°43.347 2°44.678 302 13.1 308 41.9
2010-12-20 13:19:52 51°43.482 2°44.4 301.6 13.2 308 37.3
2010-12-20 13:20:52 51°43.618 2°44.124 301.9 13.1 308 37.8
2010-12-20 13:21:52 51°43.637 2°43.833 241.1 11.1 242 41.7
2010-12-20 13:22:52 51°43.5 2°43.634 208.5 11.3 206 40.2
2010-12-20 13:23:52 51°43.326 2°43.512 205.5 11.6 203 37.8
2010-12-20 13:24:52 51°43.158 2°43.371 208.8 11.5 206 37.1
2010-12-20 13:25:52 51°42.989 2°43.23 208.3 11.4 207 38.8
2010-12-20 13:26:52 51°42.821 2°43.079 208.1 11.6 210 40.2
2010-12-20 13:27:52 51°42.644 2°42.959 199.4 11.6 193 36.1
2010-12-20 13:28:52 51°42.458 2°42.871 198.2 11.7 198 34.3
2010-12-20 13:29:52 51°42.274 2°42.783 199 11.7 198 38.3
2010-12-20 13:30:52 51°42.089 2°42.694 197.2 11.1 197 36.9
2010-12-20 13:31:52 51°41.902 2°42.601 198.6 11.9 197 37.5
2010-12-20 13:32:52 51°41.718 2°42.512 198.8 11.4 199 36
2010-12-20 13:33:52 51°41.531 2°42.422 197.7 11.9 197 35.4
2010-12-20 13:34:52 51°41.347 2°42.331 198.9 11.7 196 34.7
2010-12-20 13:35:52 51°41.163 2°42.239 199.2 11.7 200 35.5
2010-12-20 13:36:52 51°40.977 2°42.152 198.1 11.8 196 36.8
2010-12-20 13:37:52 51°40.791 2°42.065 196.8 11.3 197 34.6
2010-12-20 13:38:52 51°40.605 2°41.973 197.5 11.7 200 33.8
2010-12-20 13:39:52 51°40.419 2°41.883 198.3 11.8 198 35.6
2010-12-20 13:40:52 51°40.234 2°41.791 198.9 11.5 198 35.5
2010-12-20 13:41:52 51°40.049 2°41.7 199.3 11.9 196 33
2010-12-20 13:42:52 51°39.863 2°41.609 198.2 11.6 197 33.5
2010-12-20 13:43:52 51°39.679 2°41.516 198.6 11.6 200 28.8
2010-12-20 13:44:52 51°39.495 2°41.428 197.2 11.5 194 23.9
2010-12-20 13:45:52 51°39.312 2°41.339 198.2 11.7 197 24.3
2010-12-20 13:46:52 51°39.131 2°41.256 195.1 11.4 195 26.1
2010-12-20 13:47:52 51°38.949 2°41.161 199.4 11.4 201 26
2010-12-20 13:48:52 51°38.767 2°41.07 197.6 11.7 195 29.5
2010-12-20 13:49:52 51°38.584 2°40.98 196.8 11.7 195 29.3
2010-12-20 13:50:52 51°38.401 2°40.883 198.6 11.7 200 24.8
2010-12-20 13:51:52 51°38.22 2°40.788 198.8 11.7 198 26
2010-12-20 13:52:52 51°38.039 2°40.69 198.2 11.6 200 25.2
2010-12-20 13:53:52 51°37.857 2°40.591 199.1 11.3 202 25.6
2010-12-20 13:54:52 51°37.674 2°40.49 198.6 11.7 200 26.9
2010-12-20 13:55:52 51°37.492 2°40.388 199.2 11.5 200 27.6
2010-12-20 13:56:52 51°37.31 2°40.286 197.9 11.6 200 28.9
2010-12-20 13:57:52 51°37.128 2°40.183 198.9 11.7 198 29.9
2010-12-20 13:58:52 51°36.947 2°40.079 197.5 11.6 202 30.2
2010-12-20 13:59:52 51°36.767 2°39.972 198.9 11.5 202 31.4
2010-12-20 14:00:52 51°36.585 2°39.864 198.4 11.8 203 31.7
2010-12-20 14:01:52 51°36.403 2°39.755 198.3 11.7 200 31.6
2010-12-20 14:02:52 51°36.222 2°39.648 198 11.3 200 32.6
2010-12-20 14:03:52 51°36.04 2°39.54 198.7 11.4 201 33.9
2010-12-20 14:04:52 51°35.859 2°39.432 198.4 11.9 200 34.4
2010-12-20 14:05:52 51°35.678 2°39.321 198.8 11.6 202 34.9
2010-12-20 14:06:52 51°35.495 2°39.214 197.6 11.8 199 35.4
2010-12-20 14:07:52 51°35.31 2°39.119 195.2 11.5 196 35.5
2010-12-20 14:08:52 51°35.127 2°39.021 197.3 11.5 200 35.5
2010-12-20 14:09:52 51°34.945 2°38.932 197.3 11.3 201 35.6
2010-12-20 14:10:52 51°34.761 2°38.835 196.3 11.5 196 36
2010-12-20 14:11:52 51°34.576 2°38.735 197 12 200 36
2010-12-20 14:12:52 51°34.392 2°38.632 196.2 11.6 199 35.4
2010-12-20 14:13:52 51°34.208 2°38.528 196.1 11.7 201 31.6
2010-12-20 14:14:52 51°34.023 2°38.428 196.8 11.9 198 34.2
2010-12-20 14:15:52 51°33.835 2°38.33 196.9 12 198 34.5
2010-12-20 14:16:52 51°33.651 2°38.226 196.2 11.9 199 34.1
2010-12-20 14:17:52 51°33.465 2°38.124 195.8 11.8 198 34.1
2010-12-20 14:18:52 51°33.28 2°38.02 196.9 11.5 202 33.4
2010-12-20 14:19:52 51°33.094 2°37.92 197.2 11.6 197 32.4
2010-12-20 14:20:52 51°32.908 2°37.815 197 12.2 201 32.1
2010-12-20 14:21:52 51°32.723 2°37.711 197.2 11.6 198 31.4
2010-12-20 14:22:52 51°32.539 2°37.609 195.4 11.8 200 31.2
2010-12-20 14:23:52 51°32.354 2°37.506 196 11.8 198 32.1
2010-12-20 14:24:52 51°32.171 2°37.404 196.4 11.5 201 31.3
2010-12-20 14:25:52 51°31.987 2°37.3 196 12.2 200 31
2010-12-20 14:26:52 51°31.802 2°37.197 195.3 11.5 196 30.5
2010-12-20 14:27:44 51°2.55 2°50.015 127.1 -999 -999 7.5
2010-12-20 14:28:12 51°31.556 2°37.061 196 11.6 198 30.3
2010-12-20 14:29:12 51°31.373 2°36.958 196.2 11.9 198 32.2
2010-12-20 14:30:12 51°31.189 2°36.855 197 11.5 198 32.8
2010-12-20 14:31:12 51°31.005 2°36.752 196.1 11.9 199 33.4
2010-12-20 14:32:12 51°30.82 2°36.646 196 11.9 198 33.5
2010-12-20 14:33:12 51°30.636 2°36.543 196 11.5 204 33.9
2010-12-20 14:34:12 51°30.452 2°36.445 196.4 11.7 199 33.7
2010-12-20 14:35:12 51°30.268 2°36.339 197 11.6 202 34.3
2010-12-20 14:36:12 51°30.083 2°36.237 197.3 11.8 199 35.3
2010-12-20 14:37:12 51°29.898 2°36.139 195.5 11.5 195 33.6
2010-12-20 14:38:12 51°29.715 2°36.039 196.5 11.8 199 34.4
2010-12-20 14:39:12 51°29.53 2°35.932 197.6 11.9 199 35.5
2010-12-20 14:40:12 51°29.344 2°35.831 196 11.8 198 35.8
2010-12-20 14:41:12 51°29.159 2°35.729 195.8 11.8 199 36.1
2010-12-20 14:42:12 51°28.974 2°35.629 195.1 11.7 198 35.3
2010-12-20 14:43:12 51°28.779 2°35.591 185 11.7 184 34.4
2010-12-20 14:44:12 51°28.582 2°35.619 170.6 12.2 169 34.2
2010-12-20 14:45:12 51°28.396 2°35.734 144.6 12.3 143 29.3
2010-12-20 14:46:12 51°28.245 2°35.969 135.3 12.8 131 27.8
2010-12-20 14:47:12 51°28.1 2°36.218 134.1 12.7 135 31.8
2010-12-20 14:48:12 51°27.953 2°36.465 135.3 12.8 137 35.6
2010-12-20 14:49:12 51°27.806 2°36.711 134.9 12.7 134 37.1
2010-12-20 14:50:12 51°27.66 2°36.957 135.2 12.8 132 35.1
2010-12-20 14:51:12 51°27.515 2°37.202 135.8 12.8 131 33.3
2010-12-20 14:52:12 51°27.367 2°37.443 135.6 12.9 134 33.2
2010-12-20 14:53:12 51°27.223 2°37.686 134.8 12.6 132 33.6
2010-12-20 14:54:12 51°27.078 2°37.931 134.6 12.4 133 34.2
2010-12-20 14:55:12 51°26.935 2°38.173 135.5 12.4 133 35.9
2010-12-20 14:56:12 51°26.79 2°38.412 135 12.6 136 33.8
2010-12-20 14:57:12 51°26.644 2°38.655 135.3 12.5 134 33.5
2010-12-20 14:58:12 51°26.501 2°38.901 134.6 12.6 132 33.7
2010-12-20 14:59:12 51°26.356 2°39.144 135.4 12.5 133 34.5
2010-12-20 15:00:12 51°26.211 2°39.387 134.7 12.6 132 39.1
2010-12-20 15:01:12 51°26.064 2°39.626 136.2 12.8 136 33.3
2010-12-20 15:02:12 51°25.916 2°39.866 135.6 12.7 135 32.2
2010-12-20 15:03:12 51°25.768 2°40.102 135.9 12.6 138 32
2010-12-20 15:04:12 51°25.62 2°40.339 132.8 12.4 136 30.5
2010-12-20 15:05:12 51°25.473 2°40.575 135 12.4 136 27.1
2010-12-20 15:06:12 51°25.329 2°40.816 135.5 12.5 131 26.7
2010-12-20 15:07:12 51°25.184 2°41.058 136.2 12.8 135 28
2010-12-20 15:08:12 51°25.039 2°41.3 135.1 12.7 134 25
2010-12-20 15:09:12 51°24.891 2°41.538 136.9 12.8 136 23.9
2010-12-20 15:10:12 51°24.745 2°41.78 135.2 12.7 129 25.3
2010-12-20 15:11:12 51°24.599 2°42.021 135.7 12.6 135 24.8
2010-12-20 15:12:12 51°24.451 2°42.264 134.8 12.7 135 24.3
2010-12-20 15:13:12 51°24.299 2°42.501 136 12.7 134 24.1
2010-12-20 15:14:12 51°24.148 2°42.739 134.8 12.7 137 26.3
2010-12-20 15:15:12 51°23.997 2°42.977 136.1 12.7 138 27.3
2010-12-20 15:16:12 51°23.847 2°43.214 135.5 12.7 137 28.3
2010-12-20 15:17:12 51°23.697 2°43.452 135.8 12.7 133 26.4
2010-12-20 15:18:12 51°23.544 2°43.685 135.5 12.6 137 25.3
2010-12-20 15:19:12 51°23.392 2°43.916 136.9 12.5 138 27.1
2010-12-20 15:20:12 51°23.233 2°44.139 137.8 12.7 139 26.3
2010-12-20 15:21:12 51°23.076 2°44.368 136.7 12.7 138 27.6
2010-12-20 15:22:12 51°22.92 2°44.597 137.5 12.8 137 26.4
2010-12-20 15:23:12 51°22.763 2°44.824 137.9 12.8 136 26.2
2010-12-20 15:24:12 51°22.605 2°45.049 137.3 12.7 138 26.2
2010-12-20 15:25:12 51°22.447 2°45.276 137.2 12.7 138 25.3
2010-12-20 15:26:12 51°22.29 2°45.504 137.9 12.8 138 23.7
2010-12-20 15:27:12 51°22.132 2°45.728 140.5 12.8 140 21.8
2010-12-20 15:28:12 51°21.965 2°45.935 142.1 12.7 141 22.3
2010-12-20 15:29:12 51°21.8 2°46.146 141.6 12.6 142 24
2010-12-20 15:30:12 51°21.634 2°46.355 140.8 12.6 141 26
2010-12-20 15:31:12 51°21.467 2°46.556 141.7 12.6 145 26.4
2010-12-20 15:32:12 51°21.298 2°46.754 141.6 12.7 147 25.7
2010-12-20 15:33:12 51°21.129 2°46.955 140.8 12.6 144 24
2010-12-20 15:34:12 51°20.962 2°47.161 138.5 12.7 139 22.8
2010-12-20 15:35:12 51°20.796 2°47.369 138.9 12.8 142 19.5
2010-12-20 15:36:12 51°20.631 2°47.577 139.5 12.7 142 19.1
2010-12-20 15:37:12 51°20.465 2°47.787 139.7 12.8 139 20.7
2010-12-20 15:38:12 51°20.298 2°47.996 138.6 12.8 142 22.2
2010-12-20 15:39:12 51°20.132 2°48.208 138.6 12.7 141 23
2010-12-20 15:40:12 51°19.968 2°48.419 139.6 12.5 141 23
2010-12-20 15:41:12 51°19.803 2°48.624 139.2 12.6 143 21.9
2010-12-20 15:42:12 51°19.636 2°48.83 138.4 12.6 143 19.2
2010-12-20 15:43:12 51°19.468 2°49.034 140.2 12.8 141 17.1
2010-12-20 15:44:12 51°19.303 2°49.235 139.4 12.4 144 14.4
2010-12-20 15:45:12 51°19.135 2°49.435 139.2 12.5 142 13.2
2010-12-20 15:46:12 51°18.968 2°49.631 139.9 12.4 145 11.2
2010-12-20 15:47:12 51°18.803 2°49.833 138.7 12.6 143 12.3
2010-12-20 15:48:12 51°18.636 2°50.036 139.4 12.6 142 14.1
2010-12-20 15:49:12 51°18.468 2°50.239 140.1 12.8 143 14.9
2010-12-20 15:50:12 51°18.301 2°50.444 139.6 12.7 142 14.6
2010-12-20 15:51:12 51°18.137 2°50.657 134.4 12.6 137 13.5
2010-12-20 15:52:12 51°17.989 2°50.895 128.3 12.5 135 12.8
2010-12-20 15:53:12 51°17.852 2°51.147 127.6 12.2 133 11.2
2010-12-20 15:54:12 51°17.715 2°51.398 127.1 12.7 133 10.4
2010-12-20 15:55:12 51°17.577 2°51.647 128.9 12.7 132 10.1
2010-12-20 15:56:12 51°17.435 2°51.895 127.8 12.7 129 10.8
2010-12-20 15:57:12 51°17.27 2°52.102 144.5 12.7 147 11.8
2010-12-20 15:58:12 51°17.085 2°52.27 147.8 12.8 151 10.7
2010-12-20 15:59:12 51°16.901 2°52.437 145.2 12.4 151 9.9
2010-12-20 16:00:12 51°16.715 2°52.605 146.2 13 150 10.3
2010-12-20 16:01:12 51°16.528 2°52.775 146 13 152 12
2010-12-20 16:02:12 51°16.341 2°52.945 145.7 13 150 12.2
2010-12-20 16:03:12 51°16.154 2°53.114 145.8 13.3 150 12.2
2010-12-20 16:04:12 51°15.97 2°53.285 145.3 12.9 150 11.8
2010-12-20 16:05:12 51°15.788 2°53.463 143 12.7 148 11.7
2010-12-20 16:06:12 51°15.601 2°53.629 145.6 12.9 151 11
2010-12-20 16:07:12 51°15.413 2°53.794 145.2 12.7 150 10.3
2010-12-20 16:08:12 51°15.242 2°53.988 138.1 12.7 142 9.3
2010-12-20 16:09:12 51°15.089 2°54.215 128.1 12.4 133 8.7
2010-12-20 16:10:12 51°14.953 2°54.476 125.8 13.3 131 11.6
2010-12-20 16:11:15 51°14.777 2°54.712 139.4 13.3 146 11.7
2010-12-20 16:12:13 51°14.601 2°54.894 140.2 13 147 11.3
2010-12-20 16:13:12 51°14.429 2°55.09 140.4 12.8 144 10.4
2010-12-20 16:14:13 51°14.263 2°55.287 141.3 11.3 145 -999
2010-12-20 16:15:15 51°14.11 2°55.428 148.9 9.4 152 10.4
2010-12-20 16:16:15 51°13.975 2°55.52 155.9 8.6 159 10.6
2010-12-20 16:17:13 51°13.857 2°55.597 155.5 7.1 156 9.9
2010-12-20 16:18:12 51°13.772 2°55.695 132.3 5.7 134 10.1
2010-12-20 16:19:16 51°13.713 2°55.809 124.4 4.8 127 -999
2010-12-20 16:20:16 51°13.678 2°55.895 115.5 3.2 118 -999
2010-12-20 16:21:16 51°13.663 2°55.957 116.5 0.9 112 -999